sensor_id;sensor_type;location;lat;lon;timestamp;pressure;altitude;pressure_sealevel;temperature;humidity
37610;BME280;23457;51.966;8.230;2024-03-02T00:00:31;99623.31;;;6.68;100.00
37610;BME280;23457;51.966;8.230;2024-03-02T00:02:58;99618.94;;;6.62;100.00
37610;BME280;23457;51.966;8.230;2024-03-02T00:05:25;99615.75;;;6.80;100.00
37610;BME280;23457;51.966;8.230;2024-03-02T00:07:57;99608.59;;;6.62;100.00
37610;BME280;23457;51.966;8.230;2024-03-02T00:10:51;99603.53;;;6.68;100.00
37610;BME280;23457;51.966;8.230;2024-03-02T00:13:20;99600.19;;;6.75;100.00
37610;BME280;23457;51.966;8.230;2024-03-02T00:15:55;99609.75;;;6.82;100.00
37610;BME280;23457;51.966;8.230;2024-03-02T00:18:30;99597.72;;;6.86;100.00
37610;BME280;23457;51.966;8.230;2024-03-02T00:20:58;99603.56;;;6.70;100.00
37610;BME280;23457;51.966;8.230;2024-03-02T00:23:27;99595.66;;;6.61;100.00
37610;BME280;23457;51.966;8.230;2024-03-02T00:25:55;99596.88;;;6.86;100.00
37610;BME280;23457;51.966;8.230;2024-03-02T00:28:27;99597.75;;;6.88;100.00
37610;BME280;23457;51.966;8.230;2024-03-02T00:33:36;99584.78;;;6.81;100.00
37610;BME280;23457;51.966;8.230;2024-03-02T00:36:04;99586.69;;;6.96;100.00
37610;BME280;23457;51.966;8.230;2024-03-02T00:38:32;99587.38;;;6.84;100.00
37610;BME280;23457;51.966;8.230;2024-03-02T00:41:03;99583.25;;;6.99;100.00
37610;BME280;23457;51.966;8.230;2024-03-02T00:44:09;99584.22;;;7.05;100.00
37610;BME280;23457;51.966;8.230;2024-03-02T00:46:41;99582.34;;;6.92;100.00
37610;BME280;23457;51.966;8.230;2024-03-02T00:49:21;99586.69;;;6.98;100.00
37610;BME280;23457;51.966;8.230;2024-03-02T00:51:50;99586.63;;;6.92;100.00
37610;BME280;23457;51.966;8.230;2024-03-02T00:54:22;99584.03;;;6.92;100.00
37610;BME280;23457;51.966;8.230;2024-03-02T00:57:10;99583.94;;;6.84;100.00
37610;BME280;23457;51.966;8.230;2024-03-02T00:59:39;99592.34;;;6.68;100.00
37610;BME280;23457;51.966;8.230;2024-03-02T01:02:05;99589.06;;;6.79;100.00
37610;BME280;23457;51.966;8.230;2024-03-02T01:04:32;99595.13;;;6.84;100.00
37610;BME280;23457;51.966;8.230;2024-03-02T01:06:59;99599.63;;;6.99;100.00
37610;BME280;23457;51.966;8.230;2024-03-02T01:09:26;99594.41;;;6.93;100.00
37610;BME280;23457;51.966;8.230;2024-03-02T01:11:53;99586.31;;;6.67;100.00
37610;BME280;23457;51.966;8.230;2024-03-02T01:14:19;99577.16;;;6.91;100.00
37610;BME280;23457;51.966;8.230;2024-03-02T01:16:46;99577.94;;;6.83;100.00
37610;BME280;23457;51.966;8.230;2024-03-02T01:19:13;99578.56;;;6.67;100.00
37610;BME280;23457;51.966;8.230;2024-03-02T01:21:40;99573.50;;;6.75;100.00
37610;BME280;23457;51.966;8.230;2024-03-02T01:24:07;99565.66;;;6.67;100.00
37610;BME280;23457;51.966;8.230;2024-03-02T01:26:34;99572.38;;;6.56;100.00
37610;BME280;23457;51.966;8.230;2024-03-02T01:29:00;99572.56;;;6.71;100.00
37610;BME280;23457;51.966;8.230;2024-03-02T01:31:27;99563.97;;;6.72;100.00
37610;BME280;23457;51.966;8.230;2024-03-02T01:33:54;99572.41;;;6.59;100.00
37610;BME280;23457;51.966;8.230;2024-03-02T01:36:21;99564.84;;;6.70;100.00
37610;BME280;23457;51.966;8.230;2024-03-02T01:38:48;99571.56;;;6.60;100.00
37610;BME280;23457;51.966;8.230;2024-03-02T01:41:15;99577.78;;;6.74;100.00
37610;BME280;23457;51.966;8.230;2024-03-02T01:43:42;99574.31;;;6.72;100.00
37610;BME280;23457;51.966;8.230;2024-03-02T01:46:09;99561.28;;;6.63;100.00
37610;BME280;23457;51.966;8.230;2024-03-02T01:48:36;99562.25;;;6.70;100.00
37610;BME280;23457;51.966;8.230;2024-03-02T01:51:03;99562.25;;;6.71;100.00
37610;BME280;23457;51.966;8.230;2024-03-02T01:53:31;99551.81;;;6.62;100.00
37610;BME280;23457;51.966;8.230;2024-03-02T01:55:58;99545.75;;;6.60;100.00
37610;BME280;23457;51.966;8.230;2024-03-02T01:58:25;99548.56;;;6.77;100.00
37610;BME280;23457;51.966;8.230;2024-03-02T02:00:54;99545.94;;;6.75;100.00
37610;BME280;23457;51.966;8.230;2024-03-02T02:03:30;99548.44;;;6.66;100.00
37610;BME280;23457;51.966;8.230;2024-03-02T02:06:04;99544.13;;;6.67;100.00
37610;BME280;23457;51.966;8.230;2024-03-02T02:08:31;99538.16;;;6.69;100.00
37610;BME280;23457;51.966;8.230;2024-03-02T02:10:58;99538.34;;;6.86;100.00
37610;BME280;23457;51.966;8.230;2024-03-02T02:13:25;99535.41;;;6.57;100.00
37610;BME280;23457;51.966;8.230;2024-03-02T02:15:52;99519.03;;;6.55;100.00
37610;BME280;23457;51.966;8.230;2024-03-02T02:18:20;99513.94;;;6.61;100.00
37610;BME280;23457;51.966;8.230;2024-03-02T02:20:47;99509.69;;;6.65;100.00
37610;BME280;23457;51.966;8.230;2024-03-02T02:23:13;99512.91;;;6.48;100.00
37610;BME280;23457;51.966;8.230;2024-03-02T02:25:40;99514.06;;;6.70;100.00
37610;BME280;23457;51.966;8.230;2024-03-02T02:28:07;99512.88;;;6.45;100.00
37610;BME280;23457;51.966;8.230;2024-03-02T02:30:34;99517.50;;;6.69;100.00
37610;BME280;23457;51.966;8.230;2024-03-02T02:33:01;99511.44;;;6.67;100.00
37610;BME280;23457;51.966;8.230;2024-03-02T02:35:28;99506.28;;;6.67;100.00
37610;BME280;23457;51.966;8.230;2024-03-02T02:37:56;99507.84;;;6.56;100.00
37610;BME280;23457;51.966;8.230;2024-03-02T02:40:24;99512.31;;;6.69;100.00
37610;BME280;23457;51.966;8.230;2024-03-02T02:42:51;99507.81;;;6.53;100.00
37610;BME280;23457;51.966;8.230;2024-03-02T02:45:19;99505.22;;;6.53;100.00
37610;BME280;23457;51.966;8.230;2024-03-02T02:47:46;99501.84;;;6.57;100.00
37610;BME280;23457;51.966;8.230;2024-03-02T02:50:13;99503.72;;;6.69;100.00
37610;BME280;23457;51.966;8.230;2024-03-02T02:52:41;99504.53;;;6.66;100.00
37610;BME280;23457;51.966;8.230;2024-03-02T02:55:12;99494.09;;;6.59;100.00
37610;BME280;23457;51.966;8.230;2024-03-02T02:57:41;99492.16;;;6.41;100.00
37610;BME280;23457;51.966;8.230;2024-03-02T03:00:14;99480.88;;;6.33;100.00
37610;BME280;23457;51.966;8.230;2024-03-02T03:02:45;99483.72;;;6.53;100.00
37610;BME280;23457;51.966;8.230;2024-03-02T03:05:13;99482.59;;;6.32;100.00
37610;BME280;23457;51.966;8.230;2024-03-02T03:07:41;99482.09;;;6.62;100.00
37610;BME280;23457;51.966;8.230;2024-03-02T03:10:08;99484.47;;;6.47;100.00
37610;BME280;23457;51.966;8.230;2024-03-02T03:12:37;99484.41;;;6.41;100.00
37610;BME280;23457;51.966;8.230;2024-03-02T03:15:04;99488.69;;;6.39;100.00
37610;BME280;23457;51.966;8.230;2024-03-02T03:17:31;99490.50;;;6.44;100.00
37610;BME280;23457;51.966;8.230;2024-03-02T03:19:58;99500.13;;;6.59;100.00
37610;BME280;23457;51.966;8.230;2024-03-02T03:22:25;99501.75;;;6.51;100.00
37610;BME280;23457;51.966;8.230;2024-03-02T03:24:52;99493.75;;;6.30;100.00
37610;BME280;23457;51.966;8.230;2024-03-02T03:27:20;99493.00;;;6.40;100.00
37610;BME280;23457;51.966;8.230;2024-03-02T03:29:47;99492.91;;;6.31;100.00
37610;BME280;23457;51.966;8.230;2024-03-02T03:32:14;99497.41;;;6.45;100.00
37610;BME280;23457;51.966;8.230;2024-03-02T03:34:40;99494.41;;;6.17;100.00
37610;BME280;23457;51.966;8.230;2024-03-02T03:37:07;99490.41;;;6.38;100.00
37610;BME280;23457;51.966;8.230;2024-03-02T03:39:34;99487.06;;;6.47;100.00
37610;BME280;23457;51.966;8.230;2024-03-02T03:42:03;99490.50;;;6.44;100.00
37610;BME280;23457;51.966;8.230;2024-03-02T03:44:30;99487.88;;;6.41;100.00
37610;BME280;23457;51.966;8.230;2024-03-02T03:46:57;99496.38;;;6.36;100.00
37610;BME280;23457;51.966;8.230;2024-03-02T03:49:26;99491.88;;;6.21;100.00
37610;BME280;23457;51.966;8.230;2024-03-02T03:51:57;99490.16;;;6.19;100.00
37610;BME280;23457;51.966;8.230;2024-03-02T03:54:24;99492.06;;;6.35;100.00
37610;BME280;23457;51.966;8.230;2024-03-02T03:56:51;99484.97;;;6.17;100.00
37610;BME280;23457;51.966;8.230;2024-03-02T03:59:18;99489.47;;;6.32;100.00
37610;BME280;23457;51.966;8.230;2024-03-02T04:01:45;99488.41;;;6.18;100.00
37610;BME280;23457;51.966;8.230;2024-03-02T04:04:11;99497.22;;;6.32;100.00
37610;BME280;23457;51.966;8.230;2024-03-02T04:06:38;99500.56;;;6.26;100.00
37610;BME280;23457;51.966;8.230;2024-03-02T04:09:05;99491.16;;;6.30;100.00
37610;BME280;23457;51.966;8.230;2024-03-02T04:11:32;99498.91;;;6.30;100.00
37610;BME280;23457;51.966;8.230;2024-03-02T04:13:58;99496.28;;;6.27;100.00
37610;BME280;23457;51.966;8.230;2024-03-02T04:16:25;99492.91;;;6.34;100.00
37610;BME280;23457;51.966;8.230;2024-03-02T04:18:52;99498.84;;;6.27;100.00
37610;BME280;23457;51.966;8.230;2024-03-02T04:21:19;99489.38;;;6.26;100.00
37610;BME280;23457;51.966;8.230;2024-03-02T04:23:45;99497.25;;;6.36;100.00
37610;BME280;23457;51.966;8.230;2024-03-02T04:26:12;99496.88;;;6.09;100.00
37610;BME280;23457;51.966;8.230;2024-03-02T04:28:39;99503.06;;;6.19;100.00
37610;BME280;23457;51.966;8.230;2024-03-02T04:31:06;99503.13;;;6.26;100.00
37610;BME280;23457;51.966;8.230;2024-03-02T04:33:33;99505.75;;;6.28;100.00
37610;BME280;23457;51.966;8.230;2024-03-02T04:36:00;99502.22;;;6.23;100.00
37610;BME280;23457;51.966;8.230;2024-03-02T04:38:26;99509.97;;;6.23;100.00
37610;BME280;23457;51.966;8.230;2024-03-02T04:40:54;99505.66;;;6.23;100.00
37610;BME280;23457;51.966;8.230;2024-03-02T04:43:20;99507.25;;;6.12;100.00
37610;BME280;23457;51.966;8.230;2024-03-02T04:45:47;99520.28;;;6.23;100.00
37610;BME280;23457;51.966;8.230;2024-03-02T04:48:14;99515.09;;;6.20;100.00
37610;BME280;23457;51.966;8.230;2024-03-02T04:50:41;99512.41;;;6.12;100.00
37610;BME280;23457;51.966;8.230;2024-03-02T04:53:08;99520.13;;;6.12;100.00
37610;BME280;23457;51.966;8.230;2024-03-02T04:55:35;99519.44;;;6.24;100.00
37610;BME280;23457;51.966;8.230;2024-03-02T04:58:01;99516.97;;;6.30;100.00
37610;BME280;23457;51.966;8.230;2024-03-02T05:00:28;99525.31;;;6.14;100.00
37610;BME280;23457;51.966;8.230;2024-03-02T05:02:55;99533.13;;;6.18;100.00
37610;BME280;23457;51.966;8.230;2024-03-02T05:05:22;99528.72;;;6.11;100.00
37610;BME280;23457;51.966;8.230;2024-03-02T05:07:49;99527.22;;;6.27;100.00
37610;BME280;23457;51.966;8.230;2024-03-02T05:10:16;99538.22;;;6.14;100.00
37610;BME280;23457;51.966;8.230;2024-03-02T05:12:42;99530.56;;;6.18;100.00
37610;BME280;23457;51.966;8.230;2024-03-02T05:15:11;99533.59;;;5.91;100.00
37610;BME280;23457;51.966;8.230;2024-03-02T05:17:42;99532.09;;;6.08;100.00
37610;BME280;23457;51.966;8.230;2024-03-02T05:20:12;99533.81;;;6.06;100.00
37610;BME280;23457;51.966;8.230;2024-03-02T05:22:39;99532.34;;;5.71;100.00
37610;BME280;23457;51.966;8.230;2024-03-02T05:25:09;99540.56;;;5.98;100.00
37610;BME280;23457;51.966;8.230;2024-03-02T05:27:40;99543.31;;;6.10;100.00
37610;BME280;23457;51.966;8.230;2024-03-02T05:30:08;99534.66;;;6.05;100.00
37610;BME280;23457;51.966;8.230;2024-03-02T05:32:35;99544.03;;;6.00;100.00
37610;BME280;23457;51.966;8.230;2024-03-02T05:35:02;99547.41;;;5.95;100.00
37610;BME280;23457;51.966;8.230;2024-03-02T05:37:29;99544.19;;;6.11;100.00
37610;BME280;23457;51.966;8.230;2024-03-02T05:39:56;99544.59;;;5.84;100.00
37610;BME280;23457;51.966;8.230;2024-03-02T05:42:23;99548.47;;;6.10;100.00
37610;BME280;23457;51.966;8.230;2024-03-02T05:44:50;99549.34;;;6.11;100.00
37610;BME280;23457;51.966;8.230;2024-03-02T05:47:17;99553.63;;;6.07;100.00
37610;BME280;23457;51.966;8.230;2024-03-02T05:49:44;99553.53;;;6.03;100.00
37610;BME280;23457;51.966;8.230;2024-03-02T05:52:11;99550.97;;;6.04;100.00
37610;BME280;23457;51.966;8.230;2024-03-02T05:54:39;99552.31;;;5.84;100.00
37610;BME280;23457;51.966;8.230;2024-03-02T05:57:06;99554.88;;;5.83;100.00
37610;BME280;23457;51.966;8.230;2024-03-02T05:59:51;99556.91;;;5.99;100.00
37610;BME280;23457;51.966;8.230;2024-03-02T06:02:18;99554.47;;;6.06;100.00
37610;BME280;23457;51.966;8.230;2024-03-02T06:04:45;99551.06;;;6.10;100.00
37610;BME280;23457;51.966;8.230;2024-03-02T06:07:12;99554.28;;;5.94;100.00
37610;BME280;23457;51.966;8.230;2024-03-02T06:09:39;99554.47;;;6.06;100.00
37610;BME280;23457;51.966;8.230;2024-03-02T06:12:07;99550.16;;;6.05;100.00
37610;BME280;23457;51.966;8.230;2024-03-02T06:14:34;99561.31;;;6.04;100.00
37610;BME280;23457;51.966;8.230;2024-03-02T06:17:01;99561.44;;;6.14;100.00
37610;BME280;23457;51.966;8.230;2024-03-02T06:19:27;99566.53;;;6.07;100.00
37610;BME280;23457;51.966;8.230;2024-03-02T06:21:54;99572.31;;;5.96;100.00
37610;BME280;23457;51.966;8.230;2024-03-02T06:24:21;99578.59;;;6.11;100.00
37610;BME280;23457;51.966;8.230;2024-03-02T06:26:48;99569.88;;;6.03;100.00
37610;BME280;23457;51.966;8.230;2024-03-02T06:29:15;99583.59;;;6.01;100.00
37610;BME280;23457;51.966;8.230;2024-03-02T06:31:42;99578.72;;;6.21;100.00
37610;BME280;23457;51.966;8.230;2024-03-02T06:34:09;99580.41;;;6.17;100.00
37610;BME280;23457;51.966;8.230;2024-03-02T06:36:36;99578.31;;;5.93;100.00
37610;BME280;23457;51.966;8.230;2024-03-02T06:39:03;99579.31;;;6.03;100.00
37610;BME280;23457;51.966;8.230;2024-03-02T06:41:29;99576.06;;;6.15;100.00
37610;BME280;23457;51.966;8.230;2024-03-02T06:43:57;99584.41;;;5.98;100.00
37610;BME280;23457;51.966;8.230;2024-03-02T06:46:26;99584.38;;;5.97;100.00
37610;BME280;23457;51.966;8.230;2024-03-02T06:48:53;99594.06;;;6.11;100.00
37610;BME280;23457;51.966;8.230;2024-03-02T06:51:20;99589.81;;;6.14;100.00
37610;BME280;23457;51.966;8.230;2024-03-02T06:53:47;99593.03;;;6.00;100.00
37610;BME280;23457;51.966;8.230;2024-03-02T06:56:14;99589.63;;;6.01;100.00
37610;BME280;23457;51.966;8.230;2024-03-02T06:58:41;99587.91;;;6.02;100.00
37610;BME280;23457;51.966;8.230;2024-03-02T07:01:09;99584.69;;;6.15;100.00
37610;BME280;23457;51.966;8.230;2024-03-02T07:03:36;99597.69;;;6.23;100.00
37610;BME280;23457;51.966;8.230;2024-03-02T07:06:04;99601.94;;;6.19;100.00
37610;BME280;23457;51.966;8.230;2024-03-02T07:08:31;99596.94;;;6.30;100.00
37610;BME280;23457;51.966;8.230;2024-03-02T07:10:58;99599.34;;;6.18;100.00
37610;BME280;23457;51.966;8.230;2024-03-02T07:13:24;99594.22;;;6.19;100.00
37610;BME280;23457;51.966;8.230;2024-03-02T07:15:52;99593.50;;;6.29;100.00
37610;BME280;23457;51.966;8.230;2024-03-02T07:18:18;99603.78;;;6.26;100.00
37610;BME280;23457;51.966;8.230;2024-03-02T07:20:45;99602.16;;;6.34;100.00
37610;BME280;23457;51.966;8.230;2024-03-02T07:23:12;99607.31;;;6.34;100.00
37610;BME280;23457;51.966;8.230;2024-03-02T07:25:39;99614.44;;;6.49;100.00
37610;BME280;23457;51.966;8.230;2024-03-02T07:28:08;99614.59;;;6.58;100.00
37610;BME280;23457;51.966;8.230;2024-03-02T07:30:35;99600.84;;;6.61;100.00
37610;BME280;23457;51.966;8.230;2024-03-02T07:33:04;99603.38;;;6.56;100.00
37610;BME280;23457;51.966;8.230;2024-03-02T07:35:31;99606.06;;;6.65;100.00
37610;BME280;23457;51.966;8.230;2024-03-02T07:37:58;99598.41;;;6.71;100.00
37610;BME280;23457;51.966;8.230;2024-03-02T07:40:25;99604.63;;;6.86;100.00
37610;BME280;23457;51.966;8.230;2024-03-02T07:42:52;99603.88;;;6.93;100.00
37610;BME280;23457;51.966;8.230;2024-03-02T07:45:19;99605.50;;;6.88;100.00
37610;BME280;23457;51.966;8.230;2024-03-02T07:47:46;99610.81;;;7.00;100.00
37610;BME280;23457;51.966;8.230;2024-03-02T07:50:13;99612.66;;;7.10;100.00
37610;BME280;23457;51.966;8.230;2024-03-02T07:52:40;99612.00;;;7.25;100.00
37610;BME280;23457;51.966;8.230;2024-03-02T07:55:07;99615.56;;;7.33;100.00
37610;BME280;23457;51.966;8.230;2024-03-02T07:57:36;99619.91;;;7.38;100.00
37610;BME280;23457;51.966;8.230;2024-03-02T08:00:04;99618.38;;;7.54;100.00
37610;BME280;23457;51.966;8.230;2024-03-02T08:02:37;99619.09;;;7.42;100.00
37610;BME280;23457;51.966;8.230;2024-03-02T08:05:05;99618.47;;;7.65;100.00
37610;BME280;23457;51.966;8.230;2024-03-02T08:07:32;99630.63;;;7.72;100.00
37610;BME280;23457;51.966;8.230;2024-03-02T08:09:59;99624.63;;;7.77;100.00
37610;BME280;23457;51.966;8.230;2024-03-02T08:12:26;99628.97;;;7.78;100.00
37610;BME280;23457;51.966;8.230;2024-03-02T08:14:53;99631.81;;;8.06;100.00
37610;BME280;23457;51.966;8.230;2024-03-02T08:17:20;99627.53;;;8.11;100.00
37610;BME280;23457;51.966;8.230;2024-03-02T08:19:47;99631.00;;;8.14;100.00
37610;BME280;23457;51.966;8.230;2024-03-02T08:22:15;99638.84;;;8.23;100.00
37610;BME280;23457;51.966;8.230;2024-03-02T08:24:42;99630.25;;;8.26;100.00
37610;BME280;23457;51.966;8.230;2024-03-02T08:27:09;99633.03;;;8.46;100.00
37610;BME280;23457;51.966;8.230;2024-03-02T08:29:35;99635.75;;;8.61;100.00
37610;BME280;23457;51.966;8.230;2024-03-02T08:32:03;99639.06;;;8.49;100.00
37610;BME280;23457;51.966;8.230;2024-03-02T08:34:30;99638.41;;;8.73;100.00
37610;BME280;23457;51.966;8.230;2024-03-02T08:36:56;99633.25;;;8.81;100.00
37610;BME280;23457;51.966;8.230;2024-03-02T08:39:23;99644.50;;;8.83;100.00
37610;BME280;23457;51.966;8.230;2024-03-02T08:41:50;99637.63;;;8.89;100.00
37610;BME280;23457;51.966;8.230;2024-03-02T08:44:18;99638.56;;;8.99;100.00
37610;BME280;23457;51.966;8.230;2024-03-02T08:46:44;99636.81;;;8.98;100.00
37610;BME280;23457;51.966;8.230;2024-03-02T08:49:12;99639.47;;;9.15;100.00
37610;BME280;23457;51.966;8.230;2024-03-02T08:51:39;99634.31;;;9.25;100.00
37610;BME280;23457;51.966;8.230;2024-03-02T08:54:06;99643.06;;;9.46;100.00
37610;BME280;23457;51.966;8.230;2024-03-02T08:56:33;99641.31;;;9.36;100.00
37610;BME280;23457;51.966;8.230;2024-03-02T08:58:59;99639.66;;;9.59;100.00
37610;BME280;23457;51.966;8.230;2024-03-02T09:01:27;99650.00;;;9.54;100.00
37610;BME280;23457;51.966;8.230;2024-03-02T09:03:54;99644.00;;;9.67;100.00
37610;BME280;23457;51.966;8.230;2024-03-02T09:06:21;99647.50;;;9.91;100.00
37610;BME280;23457;51.966;8.230;2024-03-02T09:08:48;99648.34;;;9.81;100.00
37610;BME280;23457;51.966;8.230;2024-03-02T09:11:16;99655.31;;;9.97;100.00
37610;BME280;23457;51.966;8.230;2024-03-02T09:13:42;99645.81;;;10.11;100.00
37610;BME280;23457;51.966;8.230;2024-03-02T09:16:09;99654.50;;;10.31;100.00
37610;BME280;23457;51.966;8.230;2024-03-02T09:18:38;99656.22;;;10.45;100.00
37610;BME280;23457;51.966;8.230;2024-03-02T09:21:05;99657.94;;;10.39;100.00
37610;BME280;23457;51.966;8.230;2024-03-02T09:23:33;99655.34;;;10.62;100.00
37610;BME280;23457;51.966;8.230;2024-03-02T09:26:00;99651.00;;;10.66;98.95
37610;BME280;23457;51.966;8.230;2024-03-02T09:28:27;99654.47;;;10.65;97.83
37610;BME280;23457;51.966;8.230;2024-03-02T09:30:53;99652.72;;;10.67;98.50
37610;BME280;23457;51.966;8.230;2024-03-02T09:33:23;99657.91;;;10.79;98.30
37610;BME280;23457;51.966;8.230;2024-03-02T09:35:50;99644.03;;;10.89;97.63
37610;BME280;23457;51.966;8.230;2024-03-02T09:38:20;99641.44;;;11.01;97.53
37610;BME280;23457;51.966;8.230;2024-03-02T09:40:47;99647.44;;;11.09;93.70
37610;BME280;23457;51.966;8.230;2024-03-02T09:43:14;99642.22;;;11.19;93.31
37610;BME280;23457;51.966;8.230;2024-03-02T09:45:40;99643.03;;;11.28;95.67
37610;BME280;23457;51.966;8.230;2024-03-02T09:48:07;99644.75;;;11.35;93.55
37610;BME280;23457;51.966;8.230;2024-03-02T09:50:34;99645.63;;;11.34;91.69
37610;BME280;23457;51.966;8.230;2024-03-02T09:53:01;99653.31;;;11.57;92.58
37610;BME280;23457;51.966;8.230;2024-03-02T09:55:28;99650.66;;;11.69;92.20
37610;BME280;23457;51.966;8.230;2024-03-02T09:57:55;99649.84;;;11.63;90.08
37610;BME280;23457;51.966;8.230;2024-03-02T10:00:22;99655.81;;;11.84;92.06
37610;BME280;23457;51.966;8.230;2024-03-02T10:02:49;99647.13;;;11.89;89.14
37610;BME280;23457;51.966;8.230;2024-03-02T10:05:28;99640.13;;;11.94;86.66
37610;BME280;23457;51.966;8.230;2024-03-02T10:07:59;99648.59;;;12.23;86.20
37610;BME280;23457;51.966;8.230;2024-03-02T10:10:38;99642.25;;;12.56;86.61
37610;BME280;23457;51.966;8.230;2024-03-02T10:13:11;99644.97;;;12.42;85.56
37610;BME280;23457;51.966;8.230;2024-03-02T10:15:39;99643.28;;;12.40;84.99
37610;BME280;23457;51.966;8.230;2024-03-02T10:18:10;99639.69;;;12.51;83.31
37610;BME280;23457;51.966;8.230;2024-03-02T10:20:42;99632.84;;;12.40;84.44
37610;BME280;23457;51.966;8.230;2024-03-02T10:23:14;99638.53;;;12.81;83.41
37610;BME280;23457;51.966;8.230;2024-03-02T10:25:41;99639.25;;;12.96;85.88
37610;BME280;23457;51.966;8.230;2024-03-02T10:28:23;99638.69;;;12.66;81.67
37610;BME280;23457;51.966;8.230;2024-03-02T10:30:50;99637.88;;;12.60;81.21
37610;BME280;23457;51.966;8.230;2024-03-02T10:33:19;99623.59;;;12.97;83.03
37610;BME280;23457;51.966;8.230;2024-03-02T10:35:49;99623.00;;;12.69;81.37
37610;BME280;23457;51.966;8.230;2024-03-02T10:38:17;99632.50;;;12.76;80.46
37610;BME280;23457;51.966;8.230;2024-03-02T10:40:47;99626.94;;;13.08;80.48
37610;BME280;23457;51.966;8.230;2024-03-02T10:43:16;99611.88;;;13.33;82.12
37610;BME280;23457;51.966;8.230;2024-03-02T10:45:44;99620.69;;;13.24;79.70
37610;BME280;23457;51.966;8.230;2024-03-02T10:48:12;99624.28;;;13.14;76.93
37610;BME280;23457;51.966;8.230;2024-03-02T10:50:39;99616.41;;;13.17;76.85
37610;BME280;23457;51.966;8.230;2024-03-02T10:53:06;99612.34;;;13.64;79.86
37610;BME280;23457;51.966;8.230;2024-03-02T10:55:33;99622.69;;;13.70;77.13
37610;BME280;23457;51.966;8.230;2024-03-02T10:58:00;99626.34;;;13.58;75.57
37610;BME280;23457;51.966;8.230;2024-03-02T11:00:34;99625.78;;;13.96;75.23
37610;BME280;23457;51.966;8.230;2024-03-02T11:03:06;99622.97;;;14.10;75.04
37610;BME280;23457;51.966;8.230;2024-03-02T11:05:35;99626.66;;;13.97;76.03
37610;BME280;23457;51.966;8.230;2024-03-02T11:08:07;99622.53;;;14.38;74.51
37610;BME280;23457;51.966;8.230;2024-03-02T11:10:37;99627.75;;;14.38;72.58
37610;BME280;23457;51.966;8.230;2024-03-02T11:13:11;99620.25;;;14.18;71.68
37610;BME280;23457;51.966;8.230;2024-03-02T11:15:40;99621.88;;;14.25;74.24
37610;BME280;23457;51.966;8.230;2024-03-02T11:18:10;99615.06;;;14.15;73.00
37610;BME280;23457;51.966;8.230;2024-03-02T11:20:39;99624.97;;;14.50;70.81
37610;BME280;23457;51.966;8.230;2024-03-02T11:23:08;99625.28;;;14.30;69.84
37610;BME280;23457;51.966;8.230;2024-03-02T11:25:35;99632.16;;;14.34;68.52
37610;BME280;23457;51.966;8.230;2024-03-02T11:28:04;99637.00;;;14.58;66.58
37610;BME280;23457;51.966;8.230;2024-03-02T11:33:06;99628.19;;;14.65;66.60
37610;BME280;23457;51.966;8.230;2024-03-02T11:35:43;99622.72;;;14.78;65.86
37610;BME280;23457;51.966;8.230;2024-03-02T11:38:13;99629.81;;;14.69;68.05
37610;BME280;23457;51.966;8.230;2024-03-02T11:40:40;99619.44;;;14.68;66.54
37610;BME280;23457;51.966;8.230;2024-03-02T11:43:08;99618.84;;;15.41;65.03
37610;BME280;23457;51.966;8.230;2024-03-02T11:45:36;99608.50;;;15.34;64.63
37610;BME280;23457;51.966;8.230;2024-03-02T11:48:08;99618.63;;;15.92;62.54
37610;BME280;23457;51.966;8.230;2024-03-02T11:50:49;99593.25;;;15.94;62.21
37610;BME280;23457;51.966;8.230;2024-03-02T11:53:17;99601.19;;;15.91;61.06
37610;BME280;23457;51.966;8.230;2024-03-02T11:55:45;99607.44;;;15.84;60.21
37610;BME280;23457;51.966;8.230;2024-03-02T11:58:16;99601.69;;;15.70;59.62
37610;BME280;23457;51.966;8.230;2024-03-02T12:00:53;99596.53;;;15.65;61.04
37610;BME280;23457;51.966;8.230;2024-03-02T12:03:23;99598.66;;;15.47;61.45
37610;BME280;23457;51.966;8.230;2024-03-02T12:05:50;99596.00;;;15.48;63.03
37610;BME280;23457;51.966;8.230;2024-03-02T12:08:18;99606.22;;;15.99;62.47
37610;BME280;23457;51.966;8.230;2024-03-02T12:10:57;99599.50;;;15.87;59.78
37610;BME280;23457;51.966;8.230;2024-03-02T12:13:24;99589.59;;;15.63;60.89
37610;BME280;23457;51.966;8.230;2024-03-02T12:15:54;99594.56;;;15.75;59.78
37610;BME280;23457;51.966;8.230;2024-03-02T12:18:22;99591.97;;;16.10;59.87
37610;BME280;23457;51.966;8.230;2024-03-02T12:20:50;99594.72;;;16.06;58.37
37610;BME280;23457;51.966;8.230;2024-03-02T12:23:24;99582.81;;;15.93;57.68
37610;BME280;23457;51.966;8.230;2024-03-02T12:25:52;99590.28;;;15.71;60.23
37610;BME280;23457;51.966;8.230;2024-03-02T12:28:19;99588.19;;;16.22;58.74
37610;BME280;23457;51.966;8.230;2024-03-02T12:30:46;99584.31;;;16.03;58.83
37610;BME280;23457;51.966;8.230;2024-03-02T12:33:14;99586.41;;;16.23;58.18
37610;BME280;23457;51.966;8.230;2024-03-02T12:35:41;99581.66;;;16.04;58.10
37610;BME280;23457;51.966;8.230;2024-03-02T12:38:09;99585.81;;;15.76;58.21
37610;BME280;23457;51.966;8.230;2024-03-02T12:40:38;99583.19;;;15.76;57.82
37610;BME280;23457;51.966;8.230;2024-03-02T12:43:05;99587.44;;;15.41;58.17
37610;BME280;23457;51.966;8.230;2024-03-02T12:45:34;99577.16;;;15.32;57.11
37610;BME280;23457;51.966;8.230;2024-03-02T12:48:02;99567.34;;;15.82;57.97
37610;BME280;23457;51.966;8.230;2024-03-02T12:50:31;99579.72;;;15.75;58.86
37610;BME280;23457;51.966;8.230;2024-03-02T12:52:58;99585.88;;;15.73;57.36
37610;BME280;23457;51.966;8.230;2024-03-02T12:55:25;99576.00;;;15.84;58.87
37610;BME280;23457;51.966;8.230;2024-03-02T12:57:52;99585.00;;;15.32;57.21
37610;BME280;23457;51.966;8.230;2024-03-02T13:00:21;99574.91;;;15.94;57.79
37610;BME280;23457;51.966;8.230;2024-03-02T13:02:50;99576.25;;;15.33;56.23
37610;BME280;23457;51.966;8.230;2024-03-02T13:05:18;99572.75;;;15.74;57.46
37610;BME280;23457;51.966;8.230;2024-03-02T13:07:50;99569.97;;;16.18;57.45
37610;BME280;23457;51.966;8.230;2024-03-02T13:10:17;99561.16;;;16.54;55.54